Time;durP1;ratioP1;P1;durP2;ratioP2;P2;SDS_P1;SDS_P2;PMS_P1;PMS_P2;Temp;Humidity;BMP_temperature;BMP_pressure;BME280_temperature;BME280_humidity;BME280_pressure;Samples;Min_cycle;Max_cycle;Signal;HPM_P1;HPM_P2
2021/07/22 00:01:16;;;;;;;4.22;3.05;;;;;;;;;;6301803;22;20033;-41
2021/07/22 00:03:41;;;;;;;4.25;3.85;;;;;;;;;;6301375;22;20412;-41
2021/07/22 00:06:06;;;;;;;4.28;3.72;;;;;;;;;;6301956;22;20082;-46
2021/07/22 00:08:31;;;;;;;10.80;3.38;;;;;;;;;;6302105;22;20030;-41
2021/07/22 00:10:57;;;;;;;4.80;3.20;;;;;;;;;;6301951;22;20417;-42
2021/07/22 00:13:22;;;;;;;3.75;2.40;;;;;;;;;;6301887;22;20133;-44
2021/07/22 00:15:47;;;;;;;4.60;3.58;;;;;;;;;;6301370;22;20478;-41
2021/07/22 00:18:13;;;;;;;4.35;3.33;;;;;;;;;;6302212;22;20437;-44
2021/07/22 00:20:38;;;;;;;5.25;4.15;;;;;;;;;;6301510;22;20408;-40
2021/07/22 00:23:03;;;;;;;23.42;3.65;;;;;;;;;;6301737;22;20058;-41
2021/07/22 00:25:28;;;;;;;6.95;2.85;;;;;;;;;;6300697;22;19996;-41
2021/07/22 00:27:54;;;;;;;4.75;3.17;;;;;;;;;;6301377;22;20071;-42
2021/07/22 00:30:19;;;;;;;5.25;3.53;;;;;;;;;;6300566;22;20427;-41
2021/07/22 00:32:44;;;;;;;6.60;5.20;;;;;;;;;;6300415;22;20006;-41
2021/07/22 00:35:10;;;;;;;5.57;3.30;;;;;;;;;;6301748;22;20089;-41
2021/07/22 00:37:35;;;;;;;3.92;3.17;;;;;;;;;;6301452;22;19999;-41
2021/07/22 00:40:00;;;;;;;4.57;2.80;;;;;;;;;;6300998;22;20831;-41
2021/07/22 00:42:26;;;;;;;3.42;3.05;;;;;;;;;;6301472;22;19999;-42
2021/07/22 00:44:51;;;;;;;3.33;2.60;;;;;;;;;;6300652;22;20038;-41
2021/07/22 00:47:16;;;;;;;3.13;2.80;;;;;;;;;;6301081;22;20003;-41
2021/07/22 00:49:42;;;;;;;3.13;2.50;;;;;;;;;;6300748;22;19999;-41
2021/07/22 00:52:07;;;;;;;3.00;2.00;;;;;;;;;;6301455;22;19999;-41
2021/07/22 00:54:32;;;;;;;3.47;2.15;;;;;;;;;;6300661;22;20460;-40
2021/07/22 00:56:57;;;;;;;5.20;3.47;;;;;;;;;;6301233;22;20180;-40
2021/07/22 00:59:23;;;;;;;7.13;2.95;;;;;;;;;;6300712;22;19996;-41
2021/07/22 01:01:48;;;;;;;3.55;2.85;;;;;;;;;;6301236;22;19995;-41
2021/07/22 01:04:13;;;;;;;4.18;3.03;;;;;;;;;;6300661;22;20214;-41
2021/07/22 01:06:39;;;;;;;5.32;3.00;;;;;;;;;;6300882;22;20082;-41
2021/07/22 01:09:04;;;;;;;5.18;2.70;;;;;;;;;;6301486;22;20007;-40
2021/07/22 01:11:29;;;;;;;5.95;4.35;;;;;;;;;;6301288;22;20054;-42
2021/07/22 01:13:55;;;;;;;6.35;3.38;;;;;;;;;;6300574;22;20419;-42
2021/07/22 01:16:20;;;;;;;3.20;2.75;;;;;;;;;;6300809;22;20022;-41
2021/07/22 01:18:46;;;;;;;3.88;2.63;;;;;;;;;;6301201;22;20005;-41
2021/07/22 01:21:11;;;;;;;3.78;3.15;;;;;;;;;;6301131;22;20417;-41
2021/07/22 01:23:36;;;;;;;3.33;2.72;;;;;;;;;;6301134;22;19995;-41
2021/07/22 01:26:02;;;;;;;2.80;2.00;;;;;;;;;;6301034;22;20026;-41
2021/07/22 01:28:27;;;;;;;3.40;2.45;;;;;;;;;;6300901;22;20010;-41
2021/07/22 01:30:52;;;;;;;3.47;2.15;;;;;;;;;;6301252;22;19999;-40
2021/07/22 01:33:18;;;;;;;4.65;2.92;;;;;;;;;;6301107;22;20000;-41
2021/07/22 01:35:43;;;;;;;4.10;2.58;;;;;;;;;;6300660;22;20003;-41
2021/07/22 01:38:08;;;;;;;4.10;2.70;;;;;;;;;;6301053;22;19999;-42
2021/07/22 01:40:34;;;;;;;5.05;3.05;;;;;;;;;;6300897;22;20424;-42
2021/07/22 01:43:04;;;;;;;8.38;3.83;;;;;;;;;;6301554;22;19991;-42
2021/07/22 01:45:29;;;;;;;9.00;3.40;;;;;;;;;;6302876;22;20398;-44
2021/07/22 01:47:54;;;;;;;4.20;2.38;;;;;;;;;;6302838;22;20026;-41
2021/07/22 01:50:20;;;;;;;2.97;2.28;;;;;;;;;;6302571;22;20006;-42
2021/07/22 01:52:45;;;;;;;3.63;2.17;;;;;;;;;;6302520;22;19999;-41
2021/07/22 01:55:10;;;;;;;5.85;3.78;;;;;;;;;;6303512;22;20083;-41
2021/07/22 01:57:36;;;;;;;6.80;3.67;;;;;;;;;;6303230;22;19999;-41
2021/07/22 02:00:05;;;;;;;8.77;3.65;;;;;;;;;;6303058;22;20705;-41
2021/07/22 02:02:31;;;;;;;6.75;4.50;;;;;;;;;;6302890;22;20000;-41
2021/07/22 02:04:56;;;;;;;8.77;4.35;;;;;;;;;;6302805;22;20534;-40
2021/07/22 02:07:21;;;;;;;3.47;3.17;;;;;;;;;;6303289;22;20069;-41
2021/07/22 02:09:47;;;;;;;6.63;2.65;;;;;;;;;;6303308;22;20102;-41
2021/07/22 02:12:12;;;;;;;4.85;3.50;;;;;;;;;;6303261;22;20023;-41
2021/07/22 02:14:39;;;;;;;4.63;3.13;;;;;;;;;;6303522;22;20357;-42
2021/07/22 02:17:04;;;;;;;7.25;3.55;;;;;;;;;;6302326;22;20085;-39
2021/07/22 02:19:29;;;;;;;4.20;3.33;;;;;;;;;;6302793;22;20026;-41
2021/07/22 02:21:55;;;;;;;3.50;2.47;;;;;;;;;;6302976;22;20379;-41
2021/07/22 02:24:20;;;;;;;4.78;2.20;;;;;;;;;;6302701;22;20750;-40
2021/07/22 02:26:45;;;;;;;4.93;2.17;;;;;;;;;;6302680;22;20357;-39
2021/07/22 02:29:11;;;;;;;4.88;2.25;;;;;;;;;;6303036;22;20003;-40
2021/07/22 02:31:36;;;;;;;4.43;2.92;;;;;;;;;;6301908;22;20472;-41
2021/07/22 02:34:01;;;;;;;2.83;1.48;;;;;;;;;;6302204;22;20022;-41
2021/07/22 02:36:27;;;;;;;2.83;2.13;;;;;;;;;;6301594;22;20363;-40
2021/07/22 02:38:52;;;;;;;2.80;2.15;;;;;;;;;;6302154;22;19995;-41
2021/07/22 02:41:17;;;;;;;12.20;2.88;;;;;;;;;;6303038;22;20004;-39
2021/07/22 02:43:43;;;;;;;3.35;2.35;;;;;;;;;;6302149;22;20416;-42
2021/07/22 02:46:09;;;;;;;6.55;2.42;;;;;;;;;;6302291;22;20009;-42
2021/07/22 02:48:34;;;;;;;6.95;2.40;;;;;;;;;;6302617;22;20049;-46
2021/07/22 02:51:00;;;;;;;3.63;2.50;;;;;;;;;;6302407;22;20003;-43
2021/07/22 02:53:26;;;;;;;3.28;2.13;;;;;;;;;;6302254;22;19999;-41
2021/07/22 02:55:53;;;;;;;3.92;2.35;;;;;;;;;;6302031;22;20325;-42
2021/07/22 02:58:19;;;;;;;2.97;2.30;;;;;;;;;;6302118;22;20034;-40
2021/07/22 03:00:44;;;;;;;2.55;1.77;;;;;;;;;;6302072;22;19995;-40
2021/07/22 03:03:09;;;;;;;3.00;1.55;;;;;;;;;;6302424;22;20052;-43
2021/07/22 03:05:35;;;;;;;2.58;1.95;;;;;;;;;;6300742;22;20412;-42
2021/07/22 03:08:01;;;;;;;2.70;2.40;;;;;;;;;;6302063;22;20334;-41
2021/07/22 03:10:27;;;;;;;3.60;2.03;;;;;;;;;;6302332;22;20004;-45
2021/07/22 03:12:52;;;;;;;2.53;2.13;;;;;;;;;;6302258;22;20375;-45
2021/07/22 03:15:17;;;;;;;8.98;2.28;;;;;;;;;;6300971;22;20509;-42
2021/07/22 03:17:43;;;;;;;3.03;2.08;;;;;;;;;;6302498;22;20003;-45
2021/07/22 03:20:08;;;;;;;3.88;1.63;;;;;;;;;;6302927;22;19999;-43
2021/07/22 03:22:33;;;;;;;3.20;1.85;;;;;;;;;;6302605;22;19991;-41
2021/07/22 03:24:59;;;;;;;4.82;2.38;;;;;;;;;;6301829;22;20002;-41
2021/07/22 03:27:24;;;;;;;6.18;2.22;;;;;;;;;;6300932;22;20041;-41
2021/07/22 03:29:49;;;;;;;6.38;2.47;;;;;;;;;;6301458;22;20504;-44
2021/07/22 03:32:15;;;;;;;2.90;2.33;;;;;;;;;;6302264;22;19999;-42
2021/07/22 03:34:40;;;;;;;2.97;1.65;;;;;;;;;;6302024;22;20006;-41
2021/07/22 03:37:06;;;;;;;2.58;1.92;;;;;;;;;;6301514;22;20301;-40
2021/07/22 03:39:31;;;;;;;4.78;2.47;;;;;;;;;;6301352;22;20002;-39
2021/07/22 03:41:56;;;;;;;7.63;2.45;;;;;;;;;;6301878;22;19991;-41
2021/07/22 03:44:21;;;;;;;2.72;1.55;;;;;;;;;;6301584;22;20491;-41
2021/07/22 03:46:47;;;;;;;6.90;3.00;;;;;;;;;;6301591;22;20007;-40
2021/07/22 03:49:12;;;;;;;2.55;2.03;;;;;;;;;;6302037;22;20026;-44
2021/07/22 03:51:37;;;;;;;5.85;2.53;;;;;;;;;;6301740;22;20003;-42
2021/07/22 03:54:06;;;;;;;3.20;2.25;;;;;;;;;;6301919;22;20031;-40
2021/07/22 03:56:32;;;;;;;9.57;2.22;;;;;;;;;;6302413;22;20026;-40
2021/07/22 03:58:57;;;;;;;2.13;1.55;;;;;;;;;;6301676;22;20417;-40
2021/07/22 04:01:22;;;;;;;2.95;2.45;;;;;;;;;;6302198;22;20104;-40
2021/07/22 04:03:48;;;;;;;2.33;1.58;;;;;;;;;;6301631;22;20417;-40
2021/07/22 04:06:13;;;;;;;3.97;1.85;;;;;;;;;;6301306;22;19999;-41
2021/07/22 04:08:38;;;;;;;7.68;1.77;;;;;;;;;;6301855;22;20026;-39
2021/07/22 04:11:06;;;;;;;2.85;1.95;;;;;;;;;;6301867;22;20514;-42
2021/07/22 04:13:31;;;;;;;3.13;2.35;;;;;;;;;;6302059;22;20003;-40
2021/07/22 04:16:00;;;;;;;3.35;1.80;;;;;;;;;;6300642;22;20554;-42
2021/07/22 04:18:26;;;;;;;7.25;1.88;;;;;;;;;;6301510;22;20003;-44
2021/07/22 04:20:51;;;;;;;6.88;3.20;;;;;;;;;;6301678;22;20164;-41
2021/07/22 04:23:16;;;;;;;2.80;1.95;;;;;;;;;;6301540;22;19996;-46
2021/07/22 04:25:41;;;;;;;4.45;3.00;;;;;;;;;;6302104;22;19999;-42
2021/07/22 04:28:07;;;;;;;2.22;1.83;;;;;;;;;;6301540;22;20003;-43
2021/07/22 04:30:32;;;;;;;6.38;2.10;;;;;;;;;;6301508;22;20074;-40
2021/07/22 04:32:57;;;;;;;3.95;2.90;;;;;;;;;;6301462;22;20003;-41
2021/07/22 04:35:23;;;;;;;2.63;1.65;;;;;;;;;;6301660;22;20078;-42
2021/07/22 04:37:48;;;;;;;6.07;3.35;;;;;;;;;;6301683;22;20416;-42
2021/07/22 04:40:13;;;;;;;3.20;2.58;;;;;;;;;;6301443;22;20507;-42
2021/07/22 04:42:39;;;;;;;2.55;1.55;;;;;;;;;;6301593;22;19999;-43
2021/07/22 04:45:04;;;;;;;3.10;2.45;;;;;;;;;;6301444;22;20325;-40
2021/07/22 04:47:30;;;;;;;2.28;1.95;;;;;;;;;;6301357;22;20494;-42
2021/07/22 04:49:55;;;;;;;2.83;2.25;;;;;;;;;;6301351;22;20683;-40
2021/07/22 04:52:20;;;;;;;2.75;2.13;;;;;;;;;;6301445;22;20064;-42
2021/07/22 04:54:45;;;;;;;3.08;2.60;;;;;;;;;;6301296;22;20433;-41
2021/07/22 04:57:11;;;;;;;3.63;2.15;;;;;;;;;;6301359;22;20464;-41
2021/07/22 04:59:36;;;;;;;3.72;2.63;;;;;;;;;;6301152;22;20021;-41
2021/07/22 05:02:01;;;;;;;3.30;2.75;;;;;;;;;;6301156;22;20007;-41
2021/07/22 05:04:27;;;;;;;2.38;2.17;;;;;;;;;;6300837;22;19999;-41
2021/07/22 05:06:52;;;;;;;4.43;2.42;;;;;;;;;;6301279;22;20007;-43
2021/07/22 05:09:17;;;;;;;4.45;3.13;;;;;;;;;;6301088;22;20480;-40
2021/07/22 05:11:42;;;;;;;3.25;2.08;;;;;;;;;;6301074;22;20034;-41
2021/07/22 05:14:08;;;;;;;3.38;2.20;;;;;;;;;;6301003;22;19999;-40
2021/07/22 05:16:33;;;;;;;3.40;2.58;;;;;;;;;;6300523;22;20023;-40
2021/07/22 05:18:58;;;;;;;6.20;4.15;;;;;;;;;;6300255;22;20421;-40
2021/07/22 05:21:24;;;;;;;6.30;3.55;;;;;;;;;;6301243;22;19995;-42
2021/07/22 05:23:50;;;;;;;11.18;3.08;;;;;;;;;;6301013;22;20463;-42
2021/07/22 05:26:16;;;;;;;8.85;3.42;;;;;;;;;;6301737;22;20312;-42
2021/07/22 05:28:41;;;;;;;2.90;2.38;;;;;;;;;;6300883;22;20003;-38
2021/07/22 05:31:07;;;;;;;2.53;1.65;;;;;;;;;;6300598;22;20048;-38
2021/07/22 05:33:33;;;;;;;4.28;3.08;;;;;;;;;;6301041;22;20003;-38
2021/07/22 05:36:02;;;;;;;4.10;1.98;;;;;;;;;;6300932;22;20009;-38
2021/07/22 05:38:28;;;;;;;3.80;2.50;;;;;;;;;;6300995;22;20095;-38
2021/07/22 05:40:54;;;;;;;3.67;1.80;;;;;;;;;;6301126;22;20015;-38
2021/07/22 05:43:19;;;;;;;2.00;1.65;;;;;;;;;;6301119;22;20302;-39
2021/07/22 05:45:44;;;;;;;2.70;2.42;;;;;;;;;;6300810;22;20074;-39
2021/07/22 05:48:10;;;;;;;2.92;2.60;;;;;;;;;;6300675;22;20003;-40
2021/07/22 05:50:35;;;;;;;2.83;2.42;;;;;;;;;;6301227;22;20117;-39
2021/07/22 05:53:00;;;;;;;5.63;2.47;;;;;;;;;;6301101;22;20437;-38
2021/07/22 05:55:26;;;;;;;7.65;2.50;;;;;;;;;;6301146;22;20003;-38
2021/07/22 05:57:52;;;;;;;2.55;1.65;;;;;;;;;;6300913;22;19999;-39
2021/07/22 06:00:17;;;;;;;3.78;2.05;;;;;;;;;;6300721;22;20077;-38
2021/07/22 06:02:42;;;;;;;6.10;2.72;;;;;;;;;;6300818;22;19996;-39
2021/07/22 06:05:08;;;;;;;9.52;2.97;;;;;;;;;;6300888;22;19995;-40
2021/07/22 06:07:33;;;;;;;4.13;2.72;;;;;;;;;;6301005;22;19999;-40
2021/07/22 06:09:59;;;;;;;4.32;2.05;;;;;;;;;;6300711;22;20333;-38
2021/07/22 06:12:24;;;;;;;6.88;3.78;;;;;;;;;;6301261;22;20066;-37
2021/07/22 06:14:49;;;;;;;9.52;3.08;;;;;;;;;;6301013;22;20090;-37
2021/07/22 06:17:14;;;;;;;3.45;2.22;;;;;;;;;;6300482;22;20440;-38
2021/07/22 06:19:40;;;;;;;5.43;4.10;;;;;;;;;;6301265;22;19995;-38
2021/07/22 06:22:05;;;;;;;5.78;3.38;;;;;;;;;;6300450;22;20045;-38
2021/07/22 06:24:30;;;;;;;3.80;2.70;;;;;;;;;;6300611;22;20003;-38
2021/07/22 06:26:56;;;;;;;6.35;3.67;;;;;;;;;;6300539;22;20021;-38
2021/07/22 06:29:21;;;;;;;6.35;5.15;;;;;;;;;;6301262;22;20483;-39
2021/07/22 06:31:46;;;;;;;5.65;4.28;;;;;;;;;;6302050;22;20019;-38
2021/07/22 06:34:11;;;;;;;11.80;5.30;;;;;;;;;;6301038;22;20443;-38
2021/07/22 06:36:37;;;;;;;4.75;3.58;;;;;;;;;;6301050;22;20132;-38
2021/07/22 06:39:02;;;;;;;7.07;4.53;;;;;;;;;;6301071;22;20065;-38
2021/07/22 06:41:27;;;;;;;20.67;11.00;;;;;;;;;;6301066;22;20000;-38
2021/07/22 06:43:53;;;;;;;11.77;6.72;;;;;;;;;;6301670;22;20032;-39
2021/07/22 06:46:18;;;;;;;10.82;9.88;;;;;;;;;;6301034;22;20003;-38
2021/07/22 06:48:44;;;;;;;8.25;5.60;;;;;;;;;;6302412;22;20014;-38
2021/07/22 06:51:10;;;;;;;8.13;6.00;;;;;;;;;;6302798;22;20074;-38
2021/07/22 06:53:35;;;;;;;11.18;5.95;;;;;;;;;;6302169;22;20501;-38
2021/07/22 06:56:02;;;;;;;9.02;8.10;;;;;;;;;;6301602;22;20098;-39
2021/07/22 06:58:27;;;;;;;6.95;6.35;;;;;;;;;;6302606;22;20049;-39
2021/07/22 07:00:52;;;;;;;8.98;5.93;;;;;;;;;;6302716;22;20003;-38
2021/07/22 07:03:19;;;;;;;11.70;8.98;;;;;;;;;;6302767;22;20050;-38
2021/07/22 07:05:44;;;;;;;34.17;11.25;;;;;;;;;;6302398;22;19991;-38
2021/07/22 07:08:09;;;;;;;10.10;9.07;;;;;;;;;;6302903;22;19995;-38
2021/07/22 07:10:35;;;;;;;15.43;10.35;;;;;;;;;;6302665;22;19998;-38
2021/07/22 07:13:00;;;;;;;18.70;11.70;;;;;;;;;;6302415;22;19999;-61
2021/07/22 07:15:25;;;;;;;39.70;13.55;;;;;;;;;;6302922;22;20011;-65
2021/07/22 07:17:51;;;;;;;24.80;14.32;;;;;;;;;;6302267;22;20428;-66
2021/07/22 07:20:16;;;;;;;15.32;13.73;;;;;;;;;;6302924;22;19998;-64
2021/07/22 07:22:42;;;;;;;16.92;13.48;;;;;;;;;;6302388;22;20448;-64
2021/07/22 07:25:08;;;;;;;24.77;11.80;;;;;;;;;;6302207;22;20061;-63
2021/07/22 07:27:34;;;;;;;17.55;10.30;;;;;;;;;;6302377;22;20034;-61
2021/07/22 07:30:00;;;;;;;20.60;11.05;;;;;;;;;;6302697;22;20006;-59
2021/07/22 07:32:25;;;;;;;10.07;9.10;;;;;;;;;;6302554;22;19999;-67
2021/07/22 07:34:50;;;;;;;6.95;6.22;;;;;;;;;;6302784;22;20241;-65
2021/07/22 07:37:15;;;;;;;8.18;6.30;;;;;;;;;;6302186;22;20485;-63
2021/07/22 07:39:41;;;;;;;8.98;5.32;;;;;;;;;;6302696;22;19999;-64
2021/07/22 07:42:06;;;;;;;10.43;6.05;;;;;;;;;;6301896;22;20072;-64
2021/07/22 07:44:31;;;;;;;4.70;4.03;;;;;;;;;;6302747;22;20002;-65
2021/07/22 07:46:57;;;;;;;9.55;5.28;;;;;;;;;;6302556;22;20320;-62
2021/07/22 07:49:22;;;;;;;21.55;4.85;;;;;;;;;;6302340;22;20422;-66
2021/07/22 07:51:47;;;;;;;9.38;5.50;;;;;;;;;;6302092;22;20011;-62
2021/07/22 07:54:12;;;;;;;5.07;3.35;;;;;;;;;;6302379;22;20062;-65
2021/07/22 07:56:38;;;;;;;16.42;4.85;;;;;;;;;;6301952;22;19995;-62
2021/07/22 07:59:03;;;;;;;5.00;3.65;;;;;;;;;;6302902;22;19995;-66
2021/07/22 08:01:31;;;;;;;9.05;5.65;;;;;;;;;;6302134;22;20340;-66
2021/07/22 08:03:57;;;;;;;5.72;4.28;;;;;;;;;;6301785;22;20430;-66
2021/07/22 08:06:23;;;;;;;11.27;4.03;;;;;;;;;;6302209;22;20037;-65
2021/07/22 08:08:48;;;;;;;5.72;4.20;;;;;;;;;;6301861;22;20436;-65
2021/07/22 08:11:13;;;;;;;4.47;3.75;;;;;;;;;;6302047;22;20428;-65
2021/07/22 08:13:39;;;;;;;5.85;4.70;;;;;;;;;;6302172;22;19995;-65
2021/07/22 08:16:05;;;;;;;7.07;4.35;;;;;;;;;;6301630;22;20023;-65
2021/07/22 08:18:30;;;;;;;11.45;6.43;;;;;;;;;;6301447;22;20451;-65
2021/07/22 08:20:55;;;;;;;6.10;5.18;;;;;;;;;;6301849;22;19995;-65
2021/07/22 08:23:21;;;;;;;7.05;4.95;;;;;;;;;;6301369;22;20002;-66
2021/07/22 08:25:47;;;;;;;29.27;6.47;;;;;;;;;;6301236;22;20006;-65
2021/07/22 08:28:12;;;;;;;4.30;3.25;;;;;;;;;;6301314;22;20025;-66
2021/07/22 08:30:38;;;;;;;3.90;2.80;;;;;;;;;;6301108;22;20380;-65
2021/07/22 08:33:03;;;;;;;3.60;2.95;;;;;;;;;;6300860;22;20029;-65
2021/07/22 08:35:28;;;;;;;7.47;3.55;;;;;;;;;;6301064;22;20061;-64
2021/07/22 08:37:54;;;;;;;4.13;2.95;;;;;;;;;;6300314;22;19999;-66
2021/07/22 08:40:19;;;;;;;4.93;3.58;;;;;;;;;;6300682;22;20003;-65
2021/07/22 08:42:47;;;;;;;10.35;4.05;;;;;;;;;;6300529;22;19999;-66
2021/07/22 08:45:12;;;;;;;22.67;10.32;;;;;;;;;;6300289;22;19995;-64
2021/07/22 08:47:38;;;;;;;7.80;3.00;;;;;;;;;;6299700;22;20003;-66
2021/07/22 08:50:04;;;;;;;16.52;3.60;;;;;;;;;;6299639;22;20003;-59
2021/07/22 08:52:29;;;;;;;11.63;10.43;;;;;;;;;;6300386;22;20003;-65
2021/07/22 08:54:55;;;;;;;6.03;3.78;;;;;;;;;;6300016;22;20006;-67
2021/07/22 08:57:24;;;;;;;5.70;4.15;;;;;;;;;;6300527;22;20010;-64
2021/07/22 08:59:50;;;;;;;51.15;5.95;;;;;;;;;;6300442;22;20034;-64
2021/07/22 09:02:18;;;;;;;38.67;21.50;;;;;;;;;;6300141;22;19995;-64
2021/07/22 09:05:03;;;;;;;7.40;4.43;;;;;;;;;;6299263;22;20007;-67
2021/07/22 09:07:30;;;;;;;6.32;3.92;;;;;;;;;;6299612;22;20060;-66
2021/07/22 09:10:04;;;;;;;9.35;5.28;;;;;;;;;;6300608;22;20026;-67
2021/07/22 09:12:36;;;;;;;6.97;3.72;;;;;;;;;;6301491;22;20064;-68
2021/07/22 09:15:03;;;;;;;4.18;3.67;;;;;;;;;;6301842;22;20336;-68
2021/07/22 09:17:28;;;;;;;11.65;4.43;;;;;;;;;;6300224;22;20003;-68
2021/07/22 09:19:54;;;;;;;4.88;4.47;;;;;;;;;;6301651;22;20017;-69
2021/07/22 09:22:33;;;;;;;7.32;3.58;;;;;;;;;;6301340;22;20347;-69
2021/07/22 09:24:58;;;;;;;14.98;9.48;;;;;;;;;;6301477;22;20198;-64
2021/07/22 09:27:34;;;;;;;8.57;2.83;;;;;;;;;;6301484;22;20010;-65
2021/07/22 09:30:00;;;;;;;13.60;3.75;;;;;;;;;;6301060;22;20014;-64
2021/07/22 09:32:32;;;;;;;8.27;3.47;;;;;;;;;;6300637;22;19998;-63
2021/07/22 09:35:24;;;;;;;8.60;4.50;;;;;;;;;;6299864;22;20151;-65
2021/07/22 09:37:54;;;;;;;3.95;2.90;;;;;;;;;;6296056;22;20074;-66
2021/07/22 09:40:25;;;;;;;11.68;2.58;;;;;;;;;;6300499;22;20066;-65
2021/07/22 09:42:50;;;;;;;8.77;3.80;;;;;;;;;;6300871;22;19999;-62
2021/07/22 09:45:16;;;;;;;6.32;3.63;;;;;;;;;;6301478;22;20055;-68
2021/07/22 09:47:41;;;;;;;4.53;2.33;;;;;;;;;;6300810;22;20336;-67
2021/07/22 09:50:14;;;;;;;4.75;2.50;;;;;;;;;;6301226;22;20357;-67
2021/07/22 09:52:40;;;;;;;4.47;2.63;;;;;;;;;;6300761;22;19996;-66
2021/07/22 09:55:25;;;;;;;27.90;3.75;;;;;;;;;;6301952;22;20060;-66
2021/07/22 09:57:52;;;;;;;5.70;1.98;;;;;;;;;;6300639;22;19999;-67
2021/07/22 10:00:17;;;;;;;5.93;3.58;;;;;;;;;;6301468;22;20072;-67
2021/07/22 10:02:43;;;;;;;6.28;2.92;;;;;;;;;;6301702;22;20570;-68
2021/07/22 10:05:09;;;;;;;3.40;2.60;;;;;;;;;;6302605;22;20137;-67
2021/07/22 10:07:36;;;;;;;5.15;3.47;;;;;;;;;;6303278;22;20335;-67
2021/07/22 10:10:02;;;;;;;6.43;3.28;;;;;;;;;;6303427;22;19991;-68
2021/07/22 10:12:29;;;;;;;5.15;2.35;;;;;;;;;;6303676;22;19999;-67
2021/07/22 10:14:55;;;;;;;5.57;3.33;;;;;;;;;;6302355;22;20003;-63
2021/07/22 10:17:30;;;;;;;5.18;2.95;;;;;;;;;;6300792;22;19999;-68
2021/07/22 10:19:57;;;;;;;5.38;3.17;;;;;;;;;;6302531;22;20005;-67
2021/07/22 10:22:22;;;;;;;7.18;3.20;;;;;;;;;;6301860;22;19999;-67
2021/07/22 10:24:48;;;;;;;3.88;2.85;;;;;;;;;;6302809;22;20004;-66
2021/07/22 10:27:14;;;;;;;3.67;2.47;;;;;;;;;;6301393;22;20014;-67
2021/07/22 10:29:39;;;;;;;7.32;2.75;;;;;;;;;;6302787;22;20320;-67
2021/07/22 10:32:05;;;;;;;8.77;3.70;;;;;;;;;;6302694;22;20593;-67
2021/07/22 10:34:33;;;;;;;11.70;3.47;;;;;;;;;;6302089;22;20077;-69
2021/07/22 10:36:58;;;;;;;4.63;3.47;;;;;;;;;;6302837;22;20061;-68
2021/07/22 10:40:05;;;;;;;8.40;3.65;;;;;;;;;;6303097;22;20003;-67
2021/07/22 10:42:42;;;;;;;6.63;2.72;;;;;;;;;;6207361;23;20000;-69
2021/07/22 10:45:20;;;;;;;9.80;5.43;;;;;;;;;;6293340;22;20022;-67
2021/07/22 10:48:01;;;;;;;3.70;2.45;;;;;;;;;;6301801;22;20367;-67
2021/07/22 10:50:42;;;;;;;6.53;3.30;;;;;;;;;;6301360;22;20006;-67
2021/07/22 10:53:08;;;;;;;3.58;2.90;;;;;;;;;;6302366;22;19999;-67
2021/07/22 10:55:39;;;;;;;5.95;2.88;;;;;;;;;;6301829;22;20635;-67
2021/07/22 10:58:25;;;;;;;3.60;1.88;;;;;;;;;;6301976;22;20423;-67
2021/07/22 11:00:51;;;;;;;3.08;2.20;;;;;;;;;;6302656;22;20078;-68
2021/07/22 11:03:34;;;;;;;4.07;3.30;;;;;;;;;;6303331;22;20026;-67
2021/07/22 11:06:03;;;;;;;3.45;2.03;;;;;;;;;;6302756;22;20056;-68
2021/07/22 11:08:29;;;;;;;5.93;2.58;;;;;;;;;;6302875;22;20006;-68
2021/07/22 11:10:58;;;;;;;2.42;1.85;;;;;;;;;;6302896;22;20365;-64
2021/07/22 11:13:47;;;;;;;4.57;2.93;;;;;;;;;;6302773;22;20003;-68
2021/07/22 11:16:32;;;;;;;4.15;3.08;;;;;;;;;;6254842;22;20156;-68
2021/07/22 11:19:04;;;;;;;5.90;2.10;;;;;;;;;;6302493;22;19999;-69
2021/07/22 11:21:29;;;;;;;5.38;3.00;;;;;;;;;;6302700;22;19995;-67
2021/07/22 11:23:56;;;;;;;2.55;2.13;;;;;;;;;;6302811;22;20064;-68
2021/07/22 11:26:31;;;;;;;2.85;2.17;;;;;;;;;;6302352;22;19992;-68
2021/07/22 11:28:57;;;;;;;3.42;2.67;;;;;;;;;;6302600;22;19999;-68
2021/07/22 11:31:23;;;;;;;4.18;2.90;;;;;;;;;;6302829;22;20102;-67
2021/07/22 11:33:48;;;;;;;4.05;2.50;;;;;;;;;;6302300;22;20019;-68
2021/07/22 11:36:18;;;;;;;3.75;2.53;;;;;;;;;;6303052;22;19991;-67
2021/07/22 11:38:48;;;;;;;2.85;1.95;;;;;;;;;;6302603;22;19999;-68
2021/07/22 11:41:13;;;;;;;;;;;;;;;;;;6303294;22;20424;-67
2021/07/22 11:43:39;;;;;;;7.90;2.50;;;;;;;;;;6302784;22;19910;-67
2021/07/22 11:46:06;;;;;;;8.90;2.70;;;;;;;;;;6302385;22;20053;-67
2021/07/22 11:48:31;;;;;;;2.85;1.98;;;;;;;;;;6302872;22;20038;-67
2021/07/22 11:51:07;;;;;;;5.20;2.30;;;;;;;;;;6302621;22;20003;-68
2021/07/22 11:53:33;;;;;;;20.25;13.32;;;;;;;;;;6302390;22;20010;-66
2021/07/22 11:55:59;;;;;;;5.28;3.20;;;;;;;;;;6302135;22;20007;-68
2021/07/22 11:58:24;;;;;;;2.67;1.88;;;;;;;;;;6302580;22;19999;-67
2021/07/22 12:00:50;;;;;;;3.70;2.15;;;;;;;;;;6302533;22;20045;-68
2021/07/22 12:03:21;;;;;;;12.52;6.57;;;;;;;;;;6302376;22;20200;-68
2021/07/22 12:05:47;;;;;;;4.10;3.70;;;;;;;;;;6302050;22;20001;-68
2021/07/22 12:08:15;;;;;;;4.43;2.83;;;;;;;;;;6302038;22;20007;-68
2021/07/22 12:10:41;;;;;;;14.32;2.13;;;;;;;;;;6302074;22;19995;-68
2021/07/22 12:13:08;;;;;;;4.18;1.98;;;;;;;;;;6302720;22;20434;-68
2021/07/22 12:15:34;;;;;;;1.83;1.40;;;;;;;;;;6301203;22;20076;-68
2021/07/22 12:17:59;;;;;;;3.38;2.00;;;;;;;;;;6302242;22;20029;-67
2021/07/22 12:20:24;;;;;;;4.72;2.67;;;;;;;;;;6302715;22;20657;-67
2021/07/22 12:22:50;;;;;;;2.55;2.13;;;;;;;;;;6302204;22;20003;-68
2021/07/22 12:25:16;;;;;;;9.60;3.15;;;;;;;;;;6301901;22;19999;-66
2021/07/22 12:27:52;;;;;;;5.18;2.33;;;;;;;;;;6301878;22;20007;-67
2021/07/22 12:30:19;;;;;;;5.82;4.93;;;;;;;;;;6302206;22;20032;-67
2021/07/22 12:32:47;;;;;;;3.90;3.35;;;;;;;;;;6302273;22;20009;-67
2021/07/22 12:35:33;;;;;;;4.43;2.35;;;;;;;;;;6301872;22;20741;-68
2021/07/22 12:37:59;;;;;;;3.35;2.05;;;;;;;;;;6301309;22;20010;-67
2021/07/22 12:40:40;;;;;;;2.28;1.65;;;;;;;;;;6302279;22;20006;-67
2021/07/22 12:43:07;;;;;;;3.15;2.10;;;;;;;;;;6302345;22;20002;-68
2021/07/22 12:45:33;;;;;;;2.88;1.50;;;;;;;;;;6301907;22;20086;-67
2021/07/22 12:47:58;;;;;;;3.63;2.72;;;;;;;;;;6301920;22;20038;-67
2021/07/22 12:50:31;;;;;;;2.50;2.17;;;;;;;;;;6302423;22;19991;-68
2021/07/22 12:53:03;;;;;;;4.22;2.70;;;;;;;;;;6302453;22;20006;-68
2021/07/22 12:55:51;;;;;;;2.13;1.67;;;;;;;;;;6302377;22;20048;-67
2021/07/22 12:58:24;;;;;;;2.38;1.73;;;;;;;;;;6301572;22;19999;-67
2021/07/22 13:00:57;;;;;;;15.93;13.32;;;;;;;;;;6301911;22;20041;-67
2021/07/22 13:03:22;;;;;;;6.03;1.88;;;;;;;;;;6302319;22;20113;-67
2021/07/22 13:05:47;;;;;;;13.25;10.25;;;;;;;;;;6301674;22;20439;-67
2021/07/22 13:08:13;;;;;;;28.75;23.55;;;;;;;;;;6301901;22;20007;-67
2021/07/22 13:10:38;;;;;;;15.20;9.68;;;;;;;;;;6301562;22;20108;-67
2021/07/22 13:13:05;;;;;;;7.28;3.05;;;;;;;;;;6301454;22;19999;-67
2021/07/22 13:15:30;;;;;;;6.38;5.07;;;;;;;;;;6301254;22;20063;-62
2021/07/22 13:17:56;;;;;;;5.72;5.13;;;;;;;;;;6301203;22;19995;-63
2021/07/22 13:20:21;;;;;;;4.07;2.38;;;;;;;;;;6301341;22;20312;-63
2021/07/22 13:22:47;;;;;;;5.63;4.03;;;;;;;;;;6301518;22;19999;-63
2021/07/22 13:25:12;;;;;;;6.68;3.85;;;;;;;;;;6301274;22;20309;-63
2021/07/22 13:27:38;;;;;;;4.28;3.88;;;;;;;;;;6301552;22;20007;-63
2021/07/22 13:30:07;;;;;;;12.13;3.42;;;;;;;;;;6301055;22;20007;-62
2021/07/22 13:32:34;;;;;;;3.00;1.52;;;;;;;;;;6300939;22;20007;-62
2021/07/22 13:35:00;;;;;;;8.25;4.75;;;;;;;;;;6301120;22;20082;-63
2021/07/22 13:37:25;;;;;;;2.13;1.48;;;;;;;;;;6301677;22;20070;-63
2021/07/22 13:39:51;;;;;;;3.92;2.30;;;;;;;;;;6302650;22;20324;-64
2021/07/22 13:42:16;;;;;;;6.28;2.92;;;;;;;;;;6303511;22;19995;-63
2021/07/22 13:44:41;;;;;;;2.78;1.58;;;;;;;;;;6303432;22;19999;-63
2021/07/22 13:47:07;;;;;;;4.38;2.10;;;;;;;;;;6302921;22;20432;-64
2021/07/22 13:49:32;;;;;;;1.88;1.05;;;;;;;;;;6303235;22;19995;-63
2021/07/22 13:51:58;;;;;;;6.65;2.20;;;;;;;;;;6303335;22;20011;-63
2021/07/22 13:54:23;;;;;;;2.47;2.03;;;;;;;;;;6303356;22;20095;-64
2021/07/22 13:56:49;;;;;;;2.25;1.92;;;;;;;;;;6303042;22;20031;-68
2021/07/22 13:59:14;;;;;;;2.15;1.25;;;;;;;;;;6303805;22;20003;-68
2021/07/22 14:01:40;;;;;;;2.80;2.13;;;;;;;;;;6303613;22;20561;-68
2021/07/22 14:04:08;;;;;;;3.92;2.53;;;;;;;;;;6303772;22;20026;-68
2021/07/22 14:06:33;;;;;;;1.35;1.08;;;;;;;;;;6303498;22;20014;-68
2021/07/22 14:08:58;;;;;;;4.68;2.20;;;;;;;;;;6303861;22;19999;-68
2021/07/22 14:11:23;;;;;;;4.63;3.17;;;;;;;;;;6303728;22;20000;-68
2021/07/22 14:13:49;;;;;;;3.78;2.72;;;;;;;;;;6303272;22;20026;-68
2021/07/22 14:16:14;;;;;;;6.47;2.60;;;;;;;;;;6302882;22;20050;-68
2021/07/22 14:18:40;;;;;;;7.88;3.35;;;;;;;;;;6302978;22;20090;-65
2021/07/22 14:21:06;;;;;;;17.17;4.35;;;;;;;;;;6303534;22;20045;-65
2021/07/22 14:23:31;;;;;;;2.78;2.05;;;;;;;;;;6303276;22;20023;-65
2021/07/22 14:25:57;;;;;;;3.47;2.13;;;;;;;;;;6303236;22;20032;-65
2021/07/22 14:28:22;;;;;;;3.58;2.38;;;;;;;;;;6303225;22;20725;-65
2021/07/22 14:30:47;;;;;;;6.45;2.58;;;;;;;;;;6303075;22;20010;-68
2021/07/22 14:33:13;;;;;;;5.38;2.65;;;;;;;;;;6303338;22;20082;-68
2021/07/22 14:35:38;;;;;;;2.40;2.08;;;;;;;;;;6303241;22;20429;-67
2021/07/22 14:38:03;;;;;;;3.83;2.50;;;;;;;;;;6303072;22;20076;-67